Time;durP1;ratioP1;P1;durP2;ratioP2;P2;SDS_P1;SDS_P2;PMS_P1;PMS_P2;Temp;Humidity;BMP_temperature;BMP_pressure;BME280_temperature;BME280_humidity;BME280_pressure;Samples;Min_cycle;Max_cycle;Signal;HPM_P1;HPM_P2
2024/01/21 00:02:10;;;;;;;;;;;;;;;7.89;58.45;101120.03;7313876;19;19934;-67
2024/01/21 00:04:37;;;;;;;;;;;;;;;7.86;56.08;101109.00;7332457;19;20245;-68
2024/01/21 00:07:04;;;;;;;;;;;;;;;7.89;57.31;101099.09;7330410;19;19949;-68
2024/01/21 00:09:31;;;;;;;;;;;;;;;7.95;58.11;101095.94;7342374;19;20018;-67
2024/01/21 00:11:57;;;;;;;;;;;;;;;7.92;57.16;101090.97;7329865;19;20974;-66
2024/01/21 00:14:25;;;;;;;;;;;;;;;7.93;56.53;101097.03;7326491;19;19953;-68
2024/01/21 00:16:51;;;;;;;;;;;;;;;7.97;58.05;101101.06;7324462;19;19926;-66
2024/01/21 00:19:18;;;;;;;;;;;;;;;7.92;57.47;101085.75;7318256;19;20246;-67
2024/01/21 00:21:45;;;;;;;;;;;;;;;7.88;57.25;101076.47;7326479;19;19919;-67
2024/01/21 00:24:12;;;;;;;;;;;;;;;7.83;56.58;101070.78;7327649;19;20738;-68
2024/01/21 00:26:39;;;;;;;;;;;;;;;7.92;57.99;101066.56;7315736;19;19914;-67
2024/01/21 00:29:08;;;;;;;;;;;;;;;7.97;59.87;101060.00;7323789;19;19929;-67
2024/01/21 00:31:36;;;;;;;;;;;;;;;8.05;60.49;101056.69;7326089;19;19978;-68
2024/01/21 00:34:02;;;;;;;;;;;;;;;7.96;55.88;101054.88;7332502;19;21820;-68
2024/01/21 00:36:30;;;;;;;;;;;;;;;7.98;57.33;101042.44;7331824;19;19926;-67
2024/01/21 00:38:57;;;;;;;;;;;;;;;7.96;56.70;101055.69;7331973;19;19915;-68
2024/01/21 00:41:24;;;;;;;;;;;;;;;7.98;58.65;101056.38;7325628;19;19919;-67
2024/01/21 00:43:50;;;;;;;;;;;;;;;7.95;56.93;101054.03;7329068;19;19950;-67
2024/01/21 00:46:22;;;;;;;;;;;;;;;7.81;55.03;101062.25;7338923;19;19929;-68
2024/01/21 00:48:49;;;;;;;;;;;;;;;7.87;55.99;101060.91;7337285;19;19919;-68
2024/01/21 00:51:20;;;;;;;;;;;;;;;7.90;56.72;101052.75;7330009;19;20696;-70
2024/01/21 00:53:47;;;;;;;;;;;;;;;7.92;56.30;101051.69;7326426;19;19923;-69
2024/01/21 00:56:14;;;;;;;;;;;;;;;7.93;56.74;101044.63;7325175;19;20562;-68
2024/01/21 00:58:41;;;;;;;;;;;;;;;7.96;57.13;101044.38;7318385;19;19937;-67
2024/01/21 01:01:07;;;;;;;;;;;;;;;7.99;56.78;101050.19;7324685;19;20005;-68
2024/01/21 01:03:35;;;;;;;;;;;;;;;7.95;55.03;101050.59;7319824;19;19939;-67
2024/01/21 01:06:02;;;;;;;;;;;;;;;7.95;56.22;101067.13;7323482;19;20121;-68
2024/01/21 01:08:28;;;;;;;;;;;;;;;8.00;58.52;101061.50;7327764;19;19925;-66
2024/01/21 01:10:55;;;;;;;;;;;;;;;8.03;58.64;101048.97;7321550;19;20023;-67
2024/01/21 01:13:22;;;;;;;;;;;;;;;8.01;57.42;101055.31;7322402;19;20141;-67
2024/01/21 01:15:50;;;;;;;;;;;;;;;7.97;56.92;101041.66;7327356;19;20675;-67
2024/01/21 01:18:17;;;;;;;;;;;;;;;8.01;60.59;101034.34;7311662;19;19919;-67
2024/01/21 01:20:44;;;;;;;;;;;;;;;8.02;63.57;101028.97;7322564;19;19939;-67
2024/01/21 01:23:11;;;;;;;;;;;;;;;7.95;62.77;101027.84;7322118;19;19918;-67
2024/01/21 01:25:38;;;;;;;;;;;;;;;7.97;64.83;101027.72;7319158;19;19915;-66
2024/01/21 01:28:05;;;;;;;;;;;;;;;7.97;66.63;101009.38;7321871;19;19919;-67
2024/01/21 01:30:31;;;;;;;;;;;;;;;7.95;66.78;101014.75;7317094;19;20999;-65
2024/01/21 01:32:58;;;;;;;;;;;;;;;7.92;65.94;101012.41;7322731;19;20042;-66
2024/01/21 01:35:32;;;;;;;;;;;;;;;7.88;66.08;101018.00;7325307;19;19946;-65
2024/01/21 01:37:59;;;;;;;;;;;;;;;7.88;65.32;101024.06;7319943;19;20332;-66
2024/01/21 01:40:26;;;;;;;;;;;;;;;7.90;65.47;101009.06;7326990;19;19923;-66
2024/01/21 01:42:56;;;;;;;;;;;;;;;7.88;65.60;101012.75;7313396;19;19927;-65
2024/01/21 01:45:27;;;;;;;;;;;;;;;7.87;66.95;101008.50;7320132;19;19922;-65
2024/01/21 01:47:53;;;;;;;;;;;;;;;7.85;66.17;101011.25;7319522;19;20686;-67
2024/01/21 01:50:21;;;;;;;;;;;;;;;7.79;66.09;101003.91;7318461;19;19915;-65
2024/01/21 01:52:48;;;;;;;;;;;;;;;7.77;65.52;100998.00;7314509;19;19943;-65
2024/01/21 01:55:15;;;;;;;;;;;;;;;7.72;65.47;100984.41;7315349;19;20407;-64
2024/01/21 01:57:44;;;;;;;;;;;;;;;7.82;69.99;100980.09;7321427;19;20616;-65
2024/01/21 02:00:12;;;;;;;;;;;;;;;7.78;68.20;100996.16;7328941;19;19926;-67
2024/01/21 02:02:42;;;;;;;;;;;;;;;7.73;67.80;100973.00;7330837;19;19950;-66
2024/01/21 02:05:09;;;;;;;;;;;;;;;7.70;68.89;100966.25;7327181;19;19983;-65
2024/01/21 02:07:36;;;;;;;;;;;;;;;7.72;71.30;100969.53;7321564;19;19918;-66
2024/01/21 02:10:04;;;;;;;;;;;;;;;7.69;71.13;100959.34;7320351;19;19927;-65
2024/01/21 02:12:31;;;;;;;;;;;;;;;7.64;71.83;100942.38;7313393;19;19963;-64
2024/01/21 02:14:58;;;;;;;;;;;;;;;7.60;72.53;100936.56;7321833;19;19922;-65
2024/01/21 02:17:25;;;;;;;;;;;;;;;7.59;73.41;100937.53;7324618;19;20630;-65
2024/01/21 02:19:52;;;;;;;;;;;;;;;7.59;74.47;100940.13;7317710;19;19949;-65
2024/01/21 02:22:20;;;;;;;;;;;;;;;7.57;74.32;100939.44;7317718;19;19929;-67
2024/01/21 02:24:47;;;;;;;;;;;;;;;7.53;75.73;100929.34;7315982;19;19919;-65
2024/01/21 02:27:14;;;;;;;;;;;;;;;7.51;76.11;100923.44;7315600;19;19918;-64
2024/01/21 02:29:40;;;;;;;;;;;;;;;7.42;75.59;100917.19;7319344;19;20138;-65
2024/01/21 02:32:07;;;;;;;;;;;;;;;7.44;76.94;100924.91;7316948;19;20008;-66
2024/01/21 02:34:35;;;;;;;;;;;;;;;7.43;78.28;100913.59;7325223;19;19994;-65
2024/01/21 02:37:02;;;;;;;;;;;;;;;7.47;79.61;100907.16;7323303;19;21256;-66
2024/01/21 02:39:29;;;;;;;;;;;;;;;7.44;80.00;100902.19;7323891;19;19927;-66
2024/01/21 02:41:56;;;;;;;;;;;;;;;7.44;81.05;100889.09;7319116;19;19915;-65
2024/01/21 02:44:22;;;;;;;;;;;;;;;7.31;80.42;100878.81;7327296;19;20518;-64
2024/01/21 02:46:49;;;;;;;;;;;;;;;7.26;80.86;100898.53;7333966;19;20603;-65
2024/01/21 02:49:16;;;;;;;;;;;;;;;7.28;82.39;100909.66;7325291;19;19915;-65
2024/01/21 02:51:43;;;;;;;;;;;;;;;7.25;83.36;100904.72;7321203;19;19923;-66
2024/01/21 02:54:10;;;;;;;;;;;;;;;7.26;83.39;100896.72;7320051;19;19934;-66
2024/01/21 02:56:37;;;;;;;;;;;;;;;7.31;84.25;100902.38;7322102;19;19922;-65
2024/01/21 02:59:04;;;;;;;;;;;;;;;7.27;84.44;100881.84;7322306;19;21064;-66
2024/01/21 03:01:32;;;;;;;;;;;;;;;7.28;84.67;100893.97;7318041;19;19930;-65
2024/01/21 03:03:59;;;;;;;;;;;;;;;7.27;86.34;100871.38;7316715;19;19961;-66
2024/01/21 03:06:26;;;;;;;;;;;;;;;7.16;86.49;100855.78;7321129;19;19915;-65
2024/01/21 03:08:53;;;;;;;;;;;;;;;7.18;88.33;100853.84;7314218;19;19919;-65
2024/01/21 03:11:20;;;;;;;;;;;;;;;7.21;88.69;100848.38;7319599;19;20700;-67
2024/01/21 03:13:47;;;;;;;;;;;;;;;7.23;89.09;100849.88;7320159;19;19918;-67
2024/01/21 03:16:20;;;;;;;;;;;;;;;7.22;89.47;100842.16;7316737;19;22050;-67
2024/01/21 03:18:47;;;;;;;;;;;;;;;7.23;89.71;100838.59;7317019;19;19986;-65
2024/01/21 03:21:14;;;;;;;;;;;;;;;7.27;89.68;100832.13;7311834;19;20442;-65
2024/01/21 03:23:41;;;;;;;;;;;;;;;7.25;90.12;100841.91;7316923;19;21024;-65
2024/01/21 03:26:08;;;;;;;;;;;;;;;7.17;90.22;100815.56;7327631;19;19922;-66
2024/01/21 03:28:35;;;;;;;;;;;;;;;7.19;90.62;100816.25;7316646;19;20024;-66
2024/01/21 03:31:02;;;;;;;;;;;;;;;7.18;91.34;100797.13;7312208;19;19919;-65
2024/01/21 03:33:29;;;;;;;;;;;;;;;7.13;91.35;100788.84;7312793;19;19922;-65
2024/01/21 03:35:56;;;;;;;;;;;;;;;7.17;91.93;100784.16;7311537;19;19975;-67
2024/01/21 03:38:23;;;;;;;;;;;;;;;7.19;92.27;100784.88;7320097;19;19926;-64
2024/01/21 03:40:50;;;;;;;;;;;;;;;7.20;92.48;100787.38;7325552;19;20722;-66
2024/01/21 03:43:17;;;;;;;;;;;;;;;7.21;92.83;100798.66;7333721;19;19922;-65
2024/01/21 03:45:44;;;;;;;;;;;;;;;7.26;92.82;100797.28;7327276;19;19915;-65
2024/01/21 03:48:11;;;;;;;;;;;;;;;7.22;92.64;100788.03;7333635;19;20339;-65
2024/01/21 03:50:39;;;;;;;;;;;;;;;7.21;93.16;100796.84;7326911;19;19923;-65
2024/01/21 03:53:05;;;;;;;;;;;;;;;7.21;93.09;100806.50;7326216;19;19929;-65
2024/01/21 03:55:32;;;;;;;;;;;;;;;7.25;93.68;100784.34;7330497;19;21684;-65
2024/01/21 03:57:59;;;;;;;;;;;;;;;7.27;94.40;100779.78;7335049;19;19923;-65
2024/01/21 04:00:26;;;;;;;;;;;;;;;7.32;95.12;100786.28;7332733;19;20432;-65
2024/01/21 04:02:53;;;;;;;;;;;;;;;7.38;95.01;100755.31;7328761;19;21862;-65
2024/01/21 04:05:20;;;;;;;;;;;;;;;7.32;94.47;100759.28;7321992;19;19937;-65
2024/01/21 04:07:47;;;;;;;;;;;;;;;7.38;95.16;100760.53;7328162;19;19934;-65
2024/01/21 04:10:14;;;;;;;;;;;;;;;7.38;95.05;100729.97;7328450;19;19914;-66
2024/01/21 04:12:45;;;;;;;;;;;;;;;7.42;95.54;100733.97;7330833;19;20030;-65
2024/01/21 04:15:15;;;;;;;;;;;;;;;7.45;95.35;100725.84;7328699;19;19925;-66
2024/01/21 04:17:42;;;;;;;;;;;;;;;7.49;95.43;100757.81;7326449;19;19960;-65
2024/01/21 04:20:10;;;;;;;;;;;;;;;7.50;95.42;100752.47;7326951;19;19926;-65
2024/01/21 04:22:39;;;;;;;;;;;;;;;7.50;95.57;100762.94;7314106;19;19919;-65
2024/01/21 04:25:06;;;;;;;;;;;;;;;7.54;95.75;100772.16;7319941;19;19926;-68
2024/01/21 04:27:32;;;;;;;;;;;;;;;7.52;95.71;100753.13;7324812;19;19926;-66
2024/01/21 04:29:59;;;;;;;;;;;;;;;7.57;96.05;100769.25;7328201;19;19968;-66
2024/01/21 04:32:26;;;;;;;;;;;;;;;7.57;96.60;100740.47;7315639;19;20272;-66
2024/01/21 04:34:53;;;;;;;;;;;;;;;7.66;96.68;100767.66;7322274;19;20713;-65
2024/01/21 04:37:20;;;;;;;;;;;;;;;7.69;97.03;100738.56;7319991;19;20013;-67
2024/01/21 04:39:47;;;;;;;;;;;;;;;7.76;97.27;100757.19;7318643;19;19919;-67
2024/01/21 04:42:14;;;;;;;;;;;;;;;7.84;97.35;100749.44;7327150;19;19930;-66
2024/01/21 04:44:41;;;;;;;;;;;;;;;7.85;97.27;100745.88;7326264;19;20572;-66
2024/01/21 04:47:08;;;;;;;;;;;;;;;7.88;97.10;100742.97;7325613;19;19919;-67
2024/01/21 04:49:35;;;;;;;;;;;;;;;7.89;97.52;100734.16;7324770;19;19938;-67
2024/01/21 04:52:02;;;;;;;;;;;;;;;7.83;98.10;100756.47;7318935;19;19914;-66
2024/01/21 04:54:29;;;;;;;;;;;;;;;7.86;98.19;100761.47;7317137;19;19950;-66
2024/01/21 04:56:56;;;;;;;;;;;;;;;7.85;98.61;100758.97;7319580;19;19933;-66
2024/01/21 04:59:22;;;;;;;;;;;;;;;7.93;99.14;100759.94;7325964;19;20417;-64
2024/01/21 05:01:50;;;;;;;;;;;;;;;7.97;99.47;100743.00;7332821;19;20325;-66
2024/01/21 05:04:17;;;;;;;;;;;;;;;8.01;99.01;100738.31;7329954;19;19998;-65
2024/01/21 05:06:44;;;;;;;;;;;;;;;8.05;99.59;100739.66;7338139;19;19922;-66
2024/01/21 05:09:11;;;;;;;;;;;;;;;8.10;99.78;100737.47;7327059;19;19922;-64
2024/01/21 05:11:38;;;;;;;;;;;;;;;8.11;99.45;100732.09;7331201;19;20418;-66
2024/01/21 05:14:05;;;;;;;;;;;;;;;8.13;99.32;100734.56;7333682;19;20804;-65
2024/01/21 05:16:31;;;;;;;;;;;;;;;8.11;99.48;100736.50;7336011;19;19925;-66
2024/01/21 05:18:58;;;;;;;;;;;;;;;8.15;99.80;100728.22;7321608;19;19919;-65
2024/01/21 05:21:25;;;;;;;;;;;;;;;8.18;100.00;100734.97;7321682;19;19929;-66
2024/01/21 05:23:52;;;;;;;;;;;;;;;8.21;100.00;100726.00;7323996;19;20361;-66
2024/01/21 05:26:23;;;;;;;;;;;;;;;8.23;100.00;100727.50;7334741;19;19939;-65
2024/01/21 05:28:52;;;;;;;;;;;;;;;8.24;100.00;100723.91;7329058;19;19946;-65
2024/01/21 05:31:20;;;;;;;;;;;;;;;8.20;100.00;100719.94;7321017;19;20404;-66
2024/01/21 05:33:47;;;;;;;;;;;;;;;8.23;100.00;100708.34;7324590;19;19937;-65
2024/01/21 05:36:16;;;;;;;;;;;;;;;8.24;100.00;100716.06;7330358;19;20032;-65
2024/01/21 05:38:43;;;;;;;;;;;;;;;8.27;100.00;100705.31;7322796;19;20291;-67
2024/01/21 05:41:11;;;;;;;;;;;;;;;8.31;100.00;100695.41;7322098;19;20720;-65
2024/01/21 05:43:38;;;;;;;;;;;;;;;8.32;100.00;100678.72;7324079;19;19922;-66
2024/01/21 05:46:05;;;;;;;;;;;;;;;8.37;100.00;100674.69;7326077;19;20675;-65
2024/01/21 05:48:32;;;;;;;;;;;;;;;8.38;100.00;100684.19;7327074;19;20038;-64
2024/01/21 05:50:59;;;;;;;;;;;;;;;8.41;100.00;100693.56;7329055;19;20752;-65
2024/01/21 05:53:25;;;;;;;;;;;;;;;8.46;100.00;100693.97;7329388;19;19940;-67
2024/01/21 05:55:53;;;;;;;;;;;;;;;8.50;100.00;100701.41;7322826;19;19927;-65
2024/01/21 05:58:19;;;;;;;;;;;;;;;8.53;100.00;100706.34;7330264;19;20268;-65
2024/01/21 06:00:46;;;;;;;;;;;;;;;8.57;100.00;100707.75;7320659;19;20216;-68
2024/01/21 06:03:13;;;;;;;;;;;;;;;8.61;100.00;100696.97;7322306;19;19922;-65
2024/01/21 06:05:40;;;;;;;;;;;;;;;8.62;100.00;100715.19;7314081;19;20013;-65
2024/01/21 06:08:07;;;;;;;;;;;;;;;8.67;100.00;100705.09;7311582;19;19919;-70
2024/01/21 06:10:37;;;;;;;;;;;;;;;8.66;100.00;100702.59;7319538;19;19930;-67
2024/01/21 06:13:05;;;;;;;;;;;;;;;8.68;100.00;100717.25;7319987;19;20505;-64
2024/01/21 06:15:32;;;;;;;;;;;;;;;8.72;100.00;100717.78;7321405;19;19930;-67
2024/01/21 06:17:59;;;;;;;;;;;;;;;8.78;100.00;100720.66;7316059;19;20513;-66
2024/01/21 06:20:26;;;;;;;;;;;;;;;8.81;100.00;100724.78;7318943;19;19926;-65
2024/01/21 06:22:53;;;;;;;;;;;;;;;8.88;100.00;100737.19;7318653;19;19919;-64
2024/01/21 06:25:21;;;;;;;;;;;;;;;8.89;100.00;100738.81;7319261;19;20547;-66
2024/01/21 06:27:49;;;;;;;;;;;;;;;8.91;100.00;100736.88;7318183;19;20291;-67
2024/01/21 06:30:19;;;;;;;;;;;;;;;8.91;100.00;100729.00;7325182;19;19919;-66
2024/01/21 06:32:46;;;;;;;;;;;;;;;8.94;100.00;100736.59;7320160;19;19922;-65
2024/01/21 06:35:27;;;;;;;;;;;;;;;8.96;100.00;100736.44;7322938;19;19923;-65
2024/01/21 06:37:54;;;;;;;;;;;;;;;8.96;100.00;100737.28;7319100;19;19930;-66
2024/01/21 06:40:20;;;;;;;;;;;;;;;9.04;100.00;100747.03;7325842;19;20198;-66
2024/01/21 06:42:50;;;;;;;;;;;;;;;9.10;100.00;100758.75;7316509;19;19930;-64
2024/01/21 06:45:17;;;;;;;;;;;;;;;9.08;100.00;100755.47;7326933;19;19930;-65
2024/01/21 06:47:45;;;;;;;;;;;;;;;9.13;100.00;100756.69;7314567;19;19922;-67
2024/01/21 06:50:12;;;;;;;;;;;;;;;9.16;100.00;100764.25;7315406;19;19999;-66
2024/01/21 06:52:39;;;;;;;;;;;;;;;9.19;100.00;100771.03;7316612;19;19947;-66
2024/01/21 06:55:06;;;;;;;;;;;;;;;9.21;100.00;100769.91;7325070;19;19968;-65
2024/01/21 06:57:33;;;;;;;;;;;;;;;9.26;100.00;100774.72;7315250;19;19963;-65
2024/01/21 07:00:01;;;;;;;;;;;;;;;9.28;100.00;100752.59;7316776;19;19933;-65
2024/01/21 07:02:28;;;;;;;;;;;;;;;9.30;100.00;100753.25;7319710;19;19915;-65
2024/01/21 07:04:55;;;;;;;;;;;;;;;9.33;100.00;100760.88;7314817;19;20479;-65
2024/01/21 07:07:22;;;;;;;;;;;;;;;9.35;100.00;100752.81;7320605;19;20002;-64
2024/01/21 07:09:49;;;;;;;;;;;;;;;9.39;100.00;100765.53;7322016;19;19925;-65
2024/01/21 07:12:16;;;;;;;;;;;;;;;9.42;100.00;100777.53;7322616;19;19923;-65
2024/01/21 07:14:43;;;;;;;;;;;;;;;9.42;100.00;100775.75;7321254;19;20918;-66
2024/01/21 07:17:11;;;;;;;;;;;;;;;9.43;100.00;100792.31;7321636;19;20433;-66
2024/01/21 07:19:37;;;;;;;;;;;;;;;9.47;100.00;100800.72;7326595;19;20004;-65
2024/01/21 07:22:04;;;;;;;;;;;;;;;9.53;100.00;100793.09;7324880;19;21204;-65
2024/01/21 07:24:31;;;;;;;;;;;;;;;9.57;100.00;100793.63;7324052;19;19923;-65
2024/01/21 07:26:58;;;;;;;;;;;;;;;9.60;100.00;100782.84;7325073;19;20403;-66
2024/01/21 07:29:25;;;;;;;;;;;;;;;9.60;100.00;100782.84;7330155;19;19929;-66
2024/01/21 07:31:52;;;;;;;;;;;;;;;9.61;100.00;100782.66;7318364;19;19910;-64
2024/01/21 07:34:19;;;;;;;;;;;;;;;9.63;100.00;100785.97;7321249;19;19923;-66
2024/01/21 07:36:46;;;;;;;;;;;;;;;9.66;100.00;100771.72;7322873;19;20008;-67
2024/01/21 07:39:13;;;;;;;;;;;;;;;9.63;100.00;100775.47;7322354;19;20239;-66
2024/01/21 07:41:40;;;;;;;;;;;;;;;9.66;100.00;100762.03;7324527;19;20018;-65
2024/01/21 07:44:07;;;;;;;;;;;;;;;9.68;100.00;100772.41;7328940;19;20595;-66
2024/01/21 07:46:34;;;;;;;;;;;;;;;9.69;100.00;100776.69;7328315;19;19925;-66
2024/01/21 07:49:01;;;;;;;;;;;;;;;9.72;100.00;100779.00;7331332;19;19947;-66
2024/01/21 07:51:28;;;;;;;;;;;;;;;9.78;100.00;100786.31;7340450;19;20634;-65
2024/01/21 07:53:55;;;;;;;;;;;;;;;9.80;100.00;100781.75;7337632;19;19919;-66
2024/01/21 07:56:22;;;;;;;;;;;;;;;9.79;100.00;100786.16;7339803;19;20529;-66
2024/01/21 07:58:49;;;;;;;;;;;;;;;9.85;100.00;100788.16;7337376;19;20281;-67
2024/01/21 08:01:20;;;;;;;;;;;;;;;9.91;100.00;100788.53;7327668;19;20706;-65
2024/01/21 08:03:47;;;;;;;;;;;;;;;9.93;100.00;100789.25;7322193;19;19930;-66
2024/01/21 08:06:15;;;;;;;;;;;;;;;9.96;100.00;100788.94;7321213;19;19918;-64
2024/01/21 08:08:42;;;;;;;;;;;;;;;10.00;100.00;100785.03;7322759;19;19923;-65
2024/01/21 08:11:09;;;;;;;;;;;;;;;10.02;100.00;100804.94;7318970;19;21126;-67
2024/01/21 08:13:35;;;;;;;;;;;;;;;10.06;100.00;100808.06;7317926;19;20005;-66
2024/01/21 08:16:02;;;;;;;;;;;;;;;10.05;100.00;100799.41;7329433;19;20187;-66
2024/01/21 08:18:29;;;;;;;;;;;;;;;10.05;100.00;100794.13;7323797;19;19922;-65
2024/01/21 08:20:56;;;;;;;;;;;;;;;10.05;100.00;100777.53;7323604;19;19927;-65
2024/01/21 08:23:24;;;;;;;;;;;;;;;10.02;100.00;100790.97;7316288;19;19918;-68
2024/01/21 08:25:56;;;;;;;;;;;;;;;10.02;100.00;100788.34;7315682;19;19994;-69
2024/01/21 08:28:22;;;;;;;;;;;;;;;10.05;100.00;100793.31;7317195;19;20531;-69
2024/01/21 08:30:49;;;;;;;;;;;;;;;10.04;100.00;100789.84;7321877;19;19997;-68
2024/01/21 08:33:19;;;;;;;;;;;;;;;10.07;100.00;100799.22;7318833;19;20507;-68
2024/01/21 08:35:46;;;;;;;;;;;;;;;10.08;100.00;100800.88;7311314;19;19919;-68
2024/01/21 08:38:13;;;;;;;;;;;;;;;10.13;100.00;100809.16;7319419;19;19941;-67
2024/01/21 08:40:40;;;;;;;;;;;;;;;10.15;100.00;100804.56;7330596;19;19918;-66
2024/01/21 08:43:07;;;;;;;;;;;;;;;10.19;100.00;100801.53;7333364;19;19922;-69
2024/01/21 08:45:34;;;;;;;;;;;;;;;10.25;100.00;100805.34;7321610;19;19930;-67
2024/01/21 08:48:01;;;;;;;;;;;;;;;10.27;100.00;100798.94;7326531;19;19915;-70
2024/01/21 08:50:28;;;;;;;;;;;;;;;10.31;100.00;100786.31;7315481;19;19927;-69
2024/01/21 08:52:56;;;;;;;;;;;;;;;10.37;100.00;100784.88;7330519;19;19922;-67
2024/01/21 08:55:25;;;;;;;;;;;;;;;10.38;100.00;100779.47;7325334;19;19930;-69
2024/01/21 08:57:52;;;;;;;;;;;;;;;10.42;100.00;100780.81;7325822;19;19983;-69
2024/01/21 09:00:20;;;;;;;;;;;;;;;10.47;100.00;100790.88;7321281;19;19994;-67
2024/01/21 09:02:47;;;;;;;;;;;;;;;10.51;100.00;100789.63;7321040;19;19918;-68
2024/01/21 09:05:14;;;;;;;;;;;;;;;10.56;100.00;100803.13;7144402;19;3560580;-68
2024/01/21 09:07:41;;;;;;;;;;;;;;;10.60;100.00;100810.56;7335057;19;19927;-69
2024/01/21 09:10:08;;;;;;;;;;;;;;;10.69;100.00;100820.16;7322151;19;19935;-67
2024/01/21 09:12:36;;;;;;;;;;;;;;;10.71;100.00;100802.44;7326070;19;20683;-68
2024/01/21 09:15:03;;;;;;;;;;;;;;;10.76;100.00;100807.22;7324951;19;20262;-69
2024/01/21 09:17:30;;;;;;;;;;;;;;;10.78;100.00;100799.97;7326994;19;19919;-68
2024/01/21 09:19:58;;;;;;;;;;;;;;;10.78;100.00;100801.78;7328793;19;19954;-69
2024/01/21 09:22:24;;;;;;;;;;;;;;;10.85;100.00;100793.13;7320625;19;20005;-68
2024/01/21 09:24:52;;;;;;;;;;;;;;;10.93;100.00;100797.59;7325925;19;20144;-68
2024/01/21 09:27:19;;;;;;;;;;;;;;;10.99;100.00;100810.97;7321151;19;20045;-70
2024/01/21 09:29:46;;;;;;;;;;;;;;;11.04;100.00;100799.97;7332333;19;19918;-68
2024/01/21 09:32:13;;;;;;;;;;;;;;;11.06;100.00;100788.31;7324628;19;19915;-69
2024/01/21 09:34:39;;;;;;;;;;;;;;;11.12;100.00;100802.66;7322501;19;19945;-69
2024/01/21 09:37:07;;;;;;;;;;;;;;;11.13;100.00;100804.28;7330088;19;19926;-67
2024/01/21 09:39:33;;;;;;;;;;;;;;;11.22;100.00;100815.72;7320360;19;20742;-67
2024/01/21 09:42:05;;;;;;;;;;;;;;;11.23;100.00;100818.16;7321105;19;20229;-69
2024/01/21 09:44:32;;;;;;;;;;;;;;;11.30;100.00;100832.38;7318841;19;20569;-68
2024/01/21 09:46:59;;;;;;;;;;;;;;;11.35;100.00;100840.63;7316895;19;19958;-67
2024/01/21 09:49:27;;;;;;;;;;;;;;;11.37;100.00;100851.84;7327867;19;20236;-69
2024/01/21 09:51:54;;;;;;;;;;;;;;;11.41;100.00;100850.53;7329925;19;20070;-68
2024/01/21 09:54:22;;;;;;;;;;;;;;;11.46;100.00;100864.06;7331615;19;20034;-68
2024/01/21 09:56:49;;;;;;;;;;;;;;;11.53;100.00;100886.16;7323387;19;20498;-67
2024/01/21 09:59:16;;;;;;;;;;;;;;;11.53;100.00;100880.88;7325020;19;20163;-68
2024/01/21 10:01:44;;;;;;;;;;;;;;;11.58;100.00;100902.31;7321066;19;19922;-67
2024/01/21 10:04:11;;;;;;;;;;;;;;;11.62;100.00;100908.13;7323604;19;20763;-70
2024/01/21 10:06:39;;;;;;;;;;;;;;;11.67;100.00;100897.09;7317293;19;19919;-70
2024/01/21 10:09:12;;;;;;;;;;;;;;;11.72;100.00;100898.28;7321649;19;19923;-68
2024/01/21 10:11:40;;;;;;;;;;;;;;;11.75;100.00;100897.97;7317114;19;20545;-69
2024/01/21 10:14:07;;;;;;;;;;;;;;;11.82;100.00;100885.00;7322717;19;19931;-67
2024/01/21 10:16:39;;;;;;;;;;;;;;;11.91;100.00;100898.06;7327428;19;21413;-68
2024/01/21 10:19:06;;;;;;;;;;;;;;;11.95;100.00;100895.91;7328579;19;19984;-67
2024/01/21 10:21:33;;;;;;;;;;;;;;;11.98;100.00;100922.81;7326417;19;20565;-67
2024/01/21 10:24:00;;;;;;;;;;;;;;;12.01;100.00;100916.38;7320755;19;19948;-68
2024/01/21 10:26:27;;;;;;;;;;;;;;;12.05;100.00;100916.88;7328687;19;19958;-68
2024/01/21 10:28:54;;;;;;;;;;;;;;;12.09;100.00;100913.75;7321201;19;19923;-67
2024/01/21 10:31:21;;;;;;;;;;;;;;;12.12;100.00;100916.09;7333016;19;19923;-69
2024/01/21 10:33:48;;;;;;;;;;;;;;;12.17;100.00;100899.78;7331486;19;20010;-67
2024/01/21 10:36:19;;;;;;;;;;;;;;;12.18;100.00;100872.41;7325804;19;19915;-66
2024/01/21 10:38:52;;;;;;;;;;;;;;;12.19;100.00;100890.69;7316549;19;19982;-67
2024/01/21 10:41:25;;;;;;;;;;;;;;;12.23;99.83;100907.88;7320123;19;19923;-68
2024/01/21 10:43:53;;;;;;;;;;;;;;;12.31;99.73;100936.91;7320527;19;19915;-67
2024/01/21 10:46:22;;;;;;;;;;;;;;;12.36;98.63;100937.25;7315820;19;19919;-68
2024/01/21 10:48:51;;;;;;;;;;;;;;;12.35;98.20;100925.03;7319720;19;19923;-68
2024/01/21 10:51:20;;;;;;;;;;;;;;;12.42;97.65;100923.41;7326719;19;20102;-68
2024/01/21 10:53:50;;;;;;;;;;;;;;;12.40;96.97;100930.66;7319075;19;20578;-69
2024/01/21 10:56:20;;;;;;;;;;;;;;;12.45;96.62;100906.41;7326801;19;20233;-67
2024/01/21 10:58:48;;;;;;;;;;;;;;;12.46;96.11;100904.59;7325940;19;20010;-67
2024/01/21 11:01:16;;;;;;;;;;;;;;;12.49;95.91;100894.56;7328756;19;20018;-69
2024/01/21 11:03:44;;;;;;;;;;;;;;;12.52;95.99;100891.59;7322374;19;19945;-68
2024/01/21 11:06:16;;;;;;;;;;;;;;;12.56;96.09;100876.25;7320855;19;19919;-68
2024/01/21 11:08:43;;;;;;;;;;;;;;;12.56;95.32;100878.88;7322561;19;20697;-68
2024/01/21 11:11:16;;;;;;;;;;;;;;;12.52;94.97;100852.00;7333137;19;20389;-67
2024/01/21 11:13:47;;;;;;;;;;;;;;;12.57;96.14;100862.88;7323705;19;19929;-68
2024/01/21 11:16:26;;;;;;;;;;;;;;;12.55;94.88;100861.38;7318600;19;19919;-66
2024/01/21 11:18:59;;;;;;;;;;;;;;;12.54;93.83;100865.03;7316041;19;20010;-67
2024/01/21 11:21:29;;;;;;;;;;;;;;;12.57;94.05;100875.25;7327780;19;19926;-68
2024/01/21 11:24:07;;;;;;;;;;;;;;;12.62;93.59;100907.25;7321007;19;19919;-68
2024/01/21 11:26:38;;;;;;;;;;;;;;;12.64;92.48;100915.84;7327677;19;19915;-67
2024/01/21 11:29:31;;;;;;;;;;;;;;;12.68;92.58;100903.97;7311459;19;19927;-67
2024/01/21 11:32:02;;;;;;;;;;;;;;;12.70;92.47;100920.47;7325888;19;19919;-66
2024/01/21 11:34:38;;;;;;;;;;;;;;;12.74;92.72;100914.72;7327638;19;19911;-68
2024/01/21 11:37:07;;;;;;;;;;;;;;;12.76;92.25;100922.44;7321823;19;19918;-67
2024/01/21 11:39:35;;;;;;;;;;;;;;;12.76;91.78;100931.19;7316769;19;19926;-70
2024/01/21 11:42:03;;;;;;;;;;;;;;;12.77;91.69;100913.53;7332384;19;20273;-67
2024/01/21 11:44:31;;;;;;;;;;;;;;;12.85;91.96;100905.59;7333740;19;20409;-68
2024/01/21 11:47:02;;;;;;;;;;;;;;;12.86;91.74;100878.22;7321350;19;19923;-67
2024/01/21 11:49:30;;;;;;;;;;;;;;;12.92;91.38;100843.22;7317088;19;19919;-69
2024/01/21 11:51:59;;;;;;;;;;;;;;;12.99;90.59;100828.38;7324806;19;19918;-69
2024/01/21 11:54:27;;;;;;;;;;;;;;;13.06;90.36;100794.97;7318666;19;20298;-67
2024/01/21 11:56:55;;;;;;;;;;;;;;;13.04;90.26;100778.50;7316853;19;19955;-68
2024/01/21 11:59:23;;;;;;;;;;;;;;;13.07;89.23;100780.78;7333071;19;19925;-67
2024/01/21 12:01:50;;;;;;;;;;;;;;;13.12;89.57;100778.47;7330418;19;19922;-67
2024/01/21 12:04:17;;;;;;;;;;;;;;;13.18;89.64;100774.34;7327871;19;20255;-66
2024/01/21 12:06:46;;;;;;;;;;;;;;;13.23;88.91;100799.25;7334587;19;19982;-66
2024/01/21 12:09:14;;;;;;;;;;;;;;;13.27;88.73;100792.63;7335020;19;20348;-66
2024/01/21 12:11:41;;;;;;;;;;;;;;;13.33;88.41;100799.06;7335286;19;19974;-65
2024/01/21 12:14:09;;;;;;;;;;;;;;;13.39;88.14;100813.41;7328070;19;20299;-66
2024/01/21 12:16:36;;;;;;;;;;;;;;;13.41;87.99;100806.13;7331368;19;20674;-66
2024/01/21 12:19:04;;;;;;;;;;;;;;;13.37;87.25;100796.88;7326217;19;19930;-65
2024/01/21 12:21:31;;;;;;;;;;;;;;;13.38;87.42;100783.50;7332704;19;19919;-65
2024/01/21 12:24:00;;;;;;;;;;;;;;;13.41;87.48;100777.88;7332994;19;19927;-65
2024/01/21 12:26:36;;;;;;;;;;;;;;;13.41;86.99;100777.06;7333915;19;19930;-65
2024/01/21 12:29:04;;;;;;;;;;;;;;;13.43;86.84;100759.19;7324924;19;20014;-65
2024/01/21 12:31:42;;;;;;;;;;;;;;;13.41;86.99;100759.34;7323600;19;19926;-65
2024/01/21 12:34:13;;;;;;;;;;;;;;;13.37;85.97;100767.81;7330339;19;21549;-66
2024/01/21 12:36:46;;;;;;;;;;;;;;;13.39;85.95;100785.16;7319986;19;19919;-65
2024/01/21 12:39:14;;;;;;;;;;;;;;;13.48;86.06;100783.28;7324277;19;20660;-65
2024/01/21 12:41:41;;;;;;;;;;;;;;;13.52;85.82;100782.78;7318865;19;19923;-66